sensor_id;sensor_type;location;lat;lon;timestamp;pressure;altitude;pressure_sealevel;temperature;humidity
65190;BME280;51777;53.570;9.984;2023-01-29T00:01:43;102409.53;;;2.42;100.00
65190;BME280;51777;53.570;9.984;2023-01-29T00:04:08;102403.53;;;2.43;100.00
65190;BME280;51777;53.570;9.984;2023-01-29T00:06:34;102405.44;;;2.38;100.00
65190;BME280;51777;53.570;9.984;2023-01-29T00:08:59;102394.34;;;2.39;100.00
65190;BME280;51777;53.570;9.984;2023-01-29T00:11:25;102398.28;;;2.47;100.00
65190;BME280;51777;53.570;9.984;2023-01-29T00:13:53;102389.06;;;2.43;100.00
65190;BME280;51777;53.570;9.984;2023-01-29T00:16:19;102394.88;;;2.48;100.00
65190;BME280;51777;53.570;9.984;2023-01-29T00:18:46;102392.13;;;2.53;100.00
65190;BME280;51777;53.570;9.984;2023-01-29T00:21:16;102385.44;;;2.50;100.00
65190;BME280;51777;53.570;9.984;2023-01-29T00:23:42;102376.00;;;2.52;100.00
65190;BME280;51777;53.570;9.984;2023-01-29T00:26:08;102369.09;;;2.54;100.00
65190;BME280;51777;53.570;9.984;2023-01-29T00:28:37;102368.22;;;2.55;100.00
65190;BME280;51777;53.570;9.984;2023-01-29T00:31:12;102359.84;;;2.52;100.00
65190;BME280;51777;53.570;9.984;2023-01-29T00:33:38;102358.13;;;2.52;100.00
65190;BME280;51777;53.570;9.984;2023-01-29T00:36:08;102345.28;;;2.54;100.00
65190;BME280;51777;53.570;9.984;2023-01-29T00:38:34;102339.31;;;2.55;100.00
65190;BME280;51777;53.570;9.984;2023-01-29T00:41:07;102346.00;;;2.57;100.00
65190;BME280;51777;53.570;9.984;2023-01-29T00:43:52;102351.88;;;2.61;100.00
65190;BME280;51777;53.570;9.984;2023-01-29T00:46:36;102350.97;;;2.62;100.00
65190;BME280;51777;53.570;9.984;2023-01-29T00:49:02;102359.41;;;2.64;100.00
65190;BME280;51777;53.570;9.984;2023-01-29T00:51:30;102349.31;;;2.61;100.00
65190;BME280;51777;53.570;9.984;2023-01-29T00:53:56;102360.28;;;2.63;100.00
65190;BME280;51777;53.570;9.984;2023-01-29T00:56:27;102355.19;;;2.63;100.00
65190;BME280;51777;53.570;9.984;2023-01-29T00:58:53;102356.75;;;2.67;100.00
65190;BME280;51777;53.570;9.984;2023-01-29T01:01:19;102360.00;;;2.71;100.00
65190;BME280;51777;53.570;9.984;2023-01-29T01:04:04;102354.81;;;2.74;100.00
65190;BME280;51777;53.570;9.984;2023-01-29T01:06:29;102359.88;;;2.75;100.00
65190;BME280;51777;53.570;9.984;2023-01-29T01:08:55;102360.69;;;2.76;100.00
65190;BME280;51777;53.570;9.984;2023-01-29T01:11:39;102364.84;;;2.78;100.00
65190;BME280;51777;53.570;9.984;2023-01-29T01:14:04;102362.06;;;2.84;100.00
65190;BME280;51777;53.570;9.984;2023-01-29T01:16:29;102360.31;;;2.86;100.00
65190;BME280;51777;53.570;9.984;2023-01-29T01:18:55;102361.97;;;2.87;100.00
65190;BME280;51777;53.570;9.984;2023-01-29T01:21:20;102353.53;;;2.85;100.00
65190;BME280;51777;53.570;9.984;2023-01-29T01:23:46;102357.50;;;2.92;100.00
65190;BME280;51777;53.570;9.984;2023-01-29T01:26:12;102362.50;;;2.95;100.00
65190;BME280;51777;53.570;9.984;2023-01-29T01:28:37;102359.06;;;2.97;100.00
65190;BME280;51777;53.570;9.984;2023-01-29T01:31:10;102368.38;;;2.98;100.00
65190;BME280;51777;53.570;9.984;2023-01-29T01:33:35;102371.81;;;2.98;100.00
65190;BME280;51777;53.570;9.984;2023-01-29T01:36:02;102386.28;;;2.98;100.00
65190;BME280;51777;53.570;9.984;2023-01-29T01:38:27;102381.91;;;3.01;100.00
65190;BME280;51777;53.570;9.984;2023-01-29T01:40:53;102379.41;;;3.00;100.00
65190;BME280;51777;53.570;9.984;2023-01-29T01:43:18;102373.47;;;2.99;100.00
65190;BME280;51777;53.570;9.984;2023-01-29T01:45:44;102368.94;;;3.06;100.00
65190;BME280;51777;53.570;9.984;2023-01-29T01:48:11;102364.78;;;3.03;100.00
65190;BME280;51777;53.570;9.984;2023-01-29T01:50:45;102366.72;;;2.97;100.00
65190;BME280;51777;53.570;9.984;2023-01-29T01:53:17;102366.56;;;3.01;100.00
65190;BME280;51777;53.570;9.984;2023-01-29T01:55:47;102362.41;;;2.99;100.00
65190;BME280;51777;53.570;9.984;2023-01-29T01:58:21;102361.22;;;3.07;100.00
65190;BME280;51777;53.570;9.984;2023-01-29T02:00:48;102361.41;;;3.03;100.00
65190;BME280;51777;53.570;9.984;2023-01-29T02:03:14;102362.16;;;3.05;100.00
65190;BME280;51777;53.570;9.984;2023-01-29T02:06:00;102356.16;;;3.06;100.00
65190;BME280;51777;53.570;9.984;2023-01-29T02:09:07;102351.81;;;3.08;100.00
65190;BME280;51777;53.570;9.984;2023-01-29T02:11:54;102350.16;;;3.07;100.00
65190;BME280;51777;53.570;9.984;2023-01-29T02:14:19;102346.78;;;3.06;100.00
65190;BME280;51777;53.570;9.984;2023-01-29T02:16:45;102339.00;;;3.09;100.00
65190;BME280;51777;53.570;9.984;2023-01-29T02:19:54;102346.91;;;3.03;100.00
65190;BME280;51777;53.570;9.984;2023-01-29T02:22:40;102343.72;;;2.97;100.00
65190;BME280;51777;53.570;9.984;2023-01-29T02:28:27;102337.69;;;2.99;100.00
65190;BME280;51777;53.570;9.984;2023-01-29T02:31:45;102335.09;;;3.01;100.00
65190;BME280;51777;53.570;9.984;2023-01-29T02:36:55;102329.19;;;2.99;100.00
65190;BME280;51777;53.570;9.984;2023-01-29T02:44:40;102316.44;;;2.99;100.00
65190;BME280;51777;53.570;9.984;2023-01-29T02:47:20;102327.50;;;2.98;100.00
65190;BME280;51777;53.570;9.984;2023-01-29T02:49:57;102317.41;;;2.94;100.00
65190;BME280;51777;53.570;9.984;2023-01-29T02:52:25;102309.75;;;2.94;100.00
65190;BME280;51777;53.570;9.984;2023-01-29T02:54:57;102315.69;;;2.95;100.00
65190;BME280;51777;53.570;9.984;2023-01-29T02:57:31;102311.47;;;2.94;100.00
65190;BME280;51777;53.570;9.984;2023-01-29T03:00:06;102303.94;;;2.91;100.00
65190;BME280;51777;53.570;9.984;2023-01-29T03:02:41;102298.56;;;2.97;100.00
65190;BME280;51777;53.570;9.984;2023-01-29T03:05:13;102288.97;;;3.04;100.00
65190;BME280;51777;53.570;9.984;2023-01-29T03:07:47;102286.47;;;3.02;100.00
65190;BME280;51777;53.570;9.984;2023-01-29T03:10:27;102281.50;;;2.99;100.00
65190;BME280;51777;53.570;9.984;2023-01-29T03:13:40;102279.09;;;2.94;100.00
65190;BME280;51777;53.570;9.984;2023-01-29T03:16:15;102266.81;;;3.04;100.00
65190;BME280;51777;53.570;9.984;2023-01-29T03:18:48;102273.81;;;2.99;100.00
65190;BME280;51777;53.570;9.984;2023-01-29T03:21:20;102272.09;;;3.00;100.00
65190;BME280;51777;53.570;9.984;2023-01-29T03:24:08;102269.53;;;3.00;100.00
65190;BME280;51777;53.570;9.984;2023-01-29T03:26:53;102262.81;;;2.97;100.00
65190;BME280;51777;53.570;9.984;2023-01-29T03:29:41;102250.75;;;3.01;100.00
65190;BME280;51777;53.570;9.984;2023-01-29T03:32:26;102260.09;;;3.02;100.00
65190;BME280;51777;53.570;9.984;2023-01-29T03:34:57;102260.09;;;3.02;100.00
65190;BME280;51777;53.570;9.984;2023-01-29T03:37:35;102264.06;;;3.09;100.00
65190;BME280;51777;53.570;9.984;2023-01-29T03:40:03;102259.31;;;3.00;100.00
65190;BME280;51777;53.570;9.984;2023-01-29T03:43:08;102261.63;;;3.06;100.00
65190;BME280;51777;53.570;9.984;2023-01-29T03:45:42;102257.97;;;3.13;100.00
65190;BME280;51777;53.570;9.984;2023-01-29T03:48:32;102249.75;;;3.05;100.00
65190;BME280;51777;53.570;9.984;2023-01-29T03:51:24;102253.97;;;3.06;100.00
65190;BME280;51777;53.570;9.984;2023-01-29T03:54:04;102256.47;;;3.07;100.00
65190;BME280;51777;53.570;9.984;2023-01-29T03:56:47;102251.66;;;3.00;100.00
65190;BME280;51777;53.570;9.984;2023-01-29T03:59:38;102249.94;;;3.00;100.00
65190;BME280;51777;53.570;9.984;2023-01-29T04:02:09;102242.84;;;3.07;100.00
65190;BME280;51777;53.570;9.984;2023-01-29T04:04:40;102254.84;;;3.05;100.00
65190;BME280;51777;53.570;9.984;2023-01-29T04:07:11;102245.41;;;3.07;100.00
65190;BME280;51777;53.570;9.984;2023-01-29T04:09:59;102238.81;;;3.01;100.00
65190;BME280;51777;53.570;9.984;2023-01-29T04:12:30;102244.97;;;2.95;100.00
65190;BME280;51777;53.570;9.984;2023-01-29T04:15:00;102230.56;;;2.94;100.00
65190;BME280;51777;53.570;9.984;2023-01-29T04:17:36;102237.31;;;2.95;100.00
65190;BME280;51777;53.570;9.984;2023-01-29T04:20:04;102234.66;;;2.99;100.00
65190;BME280;51777;53.570;9.984;2023-01-29T04:22:35;102236.34;;;3.00;100.00
65190;BME280;51777;53.570;9.984;2023-01-29T04:25:04;102230.63;;;2.93;100.00
65190;BME280;51777;53.570;9.984;2023-01-29T04:33:17;102233.09;;;2.94;100.00
65190;BME280;51777;53.570;9.984;2023-01-29T04:44:13;102238.22;;;2.94;100.00
65190;BME280;51777;53.570;9.984;2023-01-29T04:49:19;102245.81;;;2.96;100.00
65190;BME280;51777;53.570;9.984;2023-01-29T04:51:59;102249.25;;;2.95;100.00
65190;BME280;51777;53.570;9.984;2023-01-29T04:57:24;102261.22;;;2.94;100.00
65190;BME280;51777;53.570;9.984;2023-01-29T05:00:12;102255.47;;;2.89;100.00
65190;BME280;51777;53.570;9.984;2023-01-29T05:02:40;102254.38;;;2.95;100.00
65190;BME280;51777;53.570;9.984;2023-01-29T05:05:07;102251.06;;;2.93;100.00
65190;BME280;51777;53.570;9.984;2023-01-29T05:07:34;102247.53;;;2.95;100.00
65190;BME280;51777;53.570;9.984;2023-01-29T05:10:04;102232.63;;;2.85;100.00
65190;BME280;51777;53.570;9.984;2023-01-29T05:12:32;102235.84;;;2.90;100.00
65190;BME280;51777;53.570;9.984;2023-01-29T05:15:01;102235.91;;;2.88;100.00
65190;BME280;51777;53.570;9.984;2023-01-29T05:17:27;102226.59;;;2.87;100.00
65190;BME280;51777;53.570;9.984;2023-01-29T05:19:55;102227.28;;;2.91;100.00
65190;BME280;51777;53.570;9.984;2023-01-29T05:22:21;102215.59;;;2.85;100.00
65190;BME280;51777;53.570;9.984;2023-01-29T05:24:48;102220.75;;;2.84;100.00
65190;BME280;51777;53.570;9.984;2023-01-29T05:27:33;102220.03;;;2.80;100.00
65190;BME280;51777;53.570;9.984;2023-01-29T05:30:18;102219.28;;;2.78;100.00
65190;BME280;51777;53.570;9.984;2023-01-29T05:32:43;102226.94;;;2.78;100.00
65190;BME280;51777;53.570;9.984;2023-01-29T05:35:09;102230.38;;;2.77;100.00
65190;BME280;51777;53.570;9.984;2023-01-29T05:37:34;102225.16;;;2.80;100.00
65190;BME280;51777;53.570;9.984;2023-01-29T05:40:00;102212.06;;;2.66;100.00
65190;BME280;51777;53.570;9.984;2023-01-29T05:42:25;102207.53;;;2.74;100.00
65190;BME280;51777;53.570;9.984;2023-01-29T05:44:50;102209.28;;;2.72;100.00
65190;BME280;51777;53.570;9.984;2023-01-29T05:47:20;102194.09;;;2.69;100.00
65190;BME280;51777;53.570;9.984;2023-01-29T05:49:45;102206.84;;;2.69;100.00
65190;BME280;51777;53.570;9.984;2023-01-29T05:52:10;102213.88;;;2.64;100.00
65190;BME280;51777;53.570;9.984;2023-01-29T05:54:36;102219.69;;;2.68;100.00
65190;BME280;51777;53.570;9.984;2023-01-29T05:57:01;102233.34;;;2.67;100.00
65190;BME280;51777;53.570;9.984;2023-01-29T05:59:27;102217.31;;;2.63;100.00
65190;BME280;51777;53.570;9.984;2023-01-29T06:01:55;102222.63;;;2.57;100.00
65190;BME280;51777;53.570;9.984;2023-01-29T06:04:21;102227.53;;;2.63;100.00
65190;BME280;51777;53.570;9.984;2023-01-29T06:06:46;102224.78;;;2.68;100.00
65190;BME280;51777;53.570;9.984;2023-01-29T06:09:12;102219.09;;;2.61;100.00
65190;BME280;51777;53.570;9.984;2023-01-29T06:11:37;102215.66;;;2.62;100.00
65190;BME280;51777;53.570;9.984;2023-01-29T06:14:02;102221.59;;;2.62;100.00
65190;BME280;51777;53.570;9.984;2023-01-29T06:16:28;102207.88;;;2.65;100.00
65190;BME280;51777;53.570;9.984;2023-01-29T06:18:53;102186.59;;;2.64;100.00
65190;BME280;51777;53.570;9.984;2023-01-29T06:21:18;102183.09;;;2.67;100.00
65190;BME280;51777;53.570;9.984;2023-01-29T06:23:44;102181.44;;;2.66;100.00
65190;BME280;51777;53.570;9.984;2023-01-29T06:26:12;102188.06;;;2.70;100.00
65190;BME280;51777;53.570;9.984;2023-01-29T06:28:38;102205.19;;;2.68;100.00
65190;BME280;51777;53.570;9.984;2023-01-29T06:31:05;102179.66;;;2.68;100.00
65190;BME280;51777;53.570;9.984;2023-01-29T06:33:31;102168.31;;;2.75;100.00
65190;BME280;51777;53.570;9.984;2023-01-29T06:35:57;102166.66;;;2.74;100.00
65190;BME280;51777;53.570;9.984;2023-01-29T06:38:22;102167.38;;;2.78;100.00
65190;BME280;51777;53.570;9.984;2023-01-29T06:40:48;102154.88;;;2.70;100.00
65190;BME280;51777;53.570;9.984;2023-01-29T06:43:13;102151.28;;;2.76;100.00
65190;BME280;51777;53.570;9.984;2023-01-29T06:45:52;102153.06;;;2.74;100.00
65190;BME280;51777;53.570;9.984;2023-01-29T06:48:18;102156.38;;;2.76;100.00
65190;BME280;51777;53.570;9.984;2023-01-29T06:50:44;102161.66;;;2.71;100.00
65190;BME280;51777;53.570;9.984;2023-01-29T06:53:10;102158.88;;;2.77;100.00
65190;BME280;51777;53.570;9.984;2023-01-29T06:55:35;102141.13;;;2.74;100.00
65190;BME280;51777;53.570;9.984;2023-01-29T06:58:08;102141.88;;;2.76;100.00
65190;BME280;51777;53.570;9.984;2023-01-29T07:00:37;102141.75;;;2.79;100.00
65190;BME280;51777;53.570;9.984;2023-01-29T07:03:03;102152.81;;;2.80;100.00
65190;BME280;51777;53.570;9.984;2023-01-29T07:05:29;102154.47;;;2.81;100.00
65190;BME280;51777;53.570;9.984;2023-01-29T07:07:55;102157.78;;;2.83;100.00
65190;BME280;51777;53.570;9.984;2023-01-29T07:10:21;102145.75;;;2.86;100.00
65190;BME280;51777;53.570;9.984;2023-01-29T07:12:46;102150.88;;;2.85;100.00
65190;BME280;51777;53.570;9.984;2023-01-29T07:15:11;102149.13;;;2.87;100.00
65190;BME280;51777;53.570;9.984;2023-01-29T07:17:38;102167.09;;;2.84;100.00
65190;BME280;51777;53.570;9.984;2023-01-29T07:20:04;102168.97;;;2.80;100.00
65190;BME280;51777;53.570;9.984;2023-01-29T07:22:31;102156.25;;;2.79;100.00
65190;BME280;51777;53.570;9.984;2023-01-29T07:24:56;102154.41;;;2.82;100.00
65190;BME280;51777;53.570;9.984;2023-01-29T07:27:22;102158.28;;;3.13;100.00
65190;BME280;51777;53.570;9.984;2023-01-29T07:29:47;102159.28;;;3.09;100.00
65190;BME280;51777;53.570;9.984;2023-01-29T07:32:13;102155.69;;;2.92;100.00
65190;BME280;51777;53.570;9.984;2023-01-29T07:34:38;102152.88;;;2.78;100.00
65190;BME280;51777;53.570;9.984;2023-01-29T07:37:03;102142.88;;;2.72;100.00
65190;BME280;51777;53.570;9.984;2023-01-29T07:39:31;102132.22;;;2.62;100.00
65190;BME280;51777;53.570;9.984;2023-01-29T07:41:56;102132.22;;;2.62;100.00
65190;BME280;51777;53.570;9.984;2023-01-29T07:44:22;102123.88;;;2.57;100.00
65190;BME280;51777;53.570;9.984;2023-01-29T07:46:47;102121.66;;;2.50;100.00
65190;BME280;51777;53.570;9.984;2023-01-29T07:49:13;102110.66;;;2.48;100.00
65190;BME280;51777;53.570;9.984;2023-01-29T07:51:38;102115.75;;;2.48;100.00
65190;BME280;51777;53.570;9.984;2023-01-29T07:54:03;102119.09;;;2.50;100.00
65190;BME280;51777;53.570;9.984;2023-01-29T07:56:29;102122.56;;;2.49;100.00
65190;BME280;51777;53.570;9.984;2023-01-29T07:58:54;102116.91;;;2.41;100.00
65190;BME280;51777;53.570;9.984;2023-01-29T08:01:20;102114.47;;;2.38;100.00
65190;BME280;51777;53.570;9.984;2023-01-29T08:03:45;102124.56;;;2.41;100.00
65190;BME280;51777;53.570;9.984;2023-01-29T08:06:11;102123.59;;;2.43;100.00
65190;BME280;51777;53.570;9.984;2023-01-29T08:08:36;102121.03;;;2.43;100.00
65190;BME280;51777;53.570;9.984;2023-01-29T08:11:02;102110.13;;;2.40;100.00
65190;BME280;51777;53.570;9.984;2023-01-29T08:13:28;102110.66;;;2.48;100.00
65190;BME280;51777;53.570;9.984;2023-01-29T08:15:58;102110.41;;;2.54;100.00
65190;BME280;51777;53.570;9.984;2023-01-29T08:18:24;102119.81;;;2.53;100.00
65190;BME280;51777;53.570;9.984;2023-01-29T08:20:49;102121.34;;;2.57;100.00
65190;BME280;51777;53.570;9.984;2023-01-29T08:23:16;102119.88;;;2.52;100.00
65190;BME280;51777;53.570;9.984;2023-01-29T08:25:42;102114.50;;;2.58;100.00
65190;BME280;51777;53.570;9.984;2023-01-29T08:28:07;102121.41;;;2.56;100.00
65190;BME280;51777;53.570;9.984;2023-01-29T08:30:34;102114.97;;;2.68;100.00
65190;BME280;51777;53.570;9.984;2023-01-29T08:33:00;102112.31;;;2.71;100.00
65190;BME280;51777;53.570;9.984;2023-01-29T08:35:26;102109.44;;;2.78;100.00
65190;BME280;51777;53.570;9.984;2023-01-29T08:37:59;102109.38;;;2.80;100.00
65190;BME280;51777;53.570;9.984;2023-01-29T08:40:26;102111.38;;;2.73;100.00
65190;BME280;51777;53.570;9.984;2023-01-29T08:42:57;102100.91;;;2.79;100.00
65190;BME280;51777;53.570;9.984;2023-01-29T08:45:22;102107.78;;;2.77;100.00
65190;BME280;51777;53.570;9.984;2023-01-29T08:47:48;102101.38;;;2.67;100.00
65190;BME280;51777;53.570;9.984;2023-01-29T08:50:15;102105.47;;;2.71;100.00
65190;BME280;51777;53.570;9.984;2023-01-29T08:52:41;102095.78;;;2.79;100.00
65190;BME280;51777;53.570;9.984;2023-01-29T08:55:07;102111.81;;;2.83;100.00
65190;BME280;51777;53.570;9.984;2023-01-29T08:57:33;102106.34;;;2.92;100.00
65190;BME280;51777;53.570;9.984;2023-01-29T08:59:58;102107.31;;;2.89;100.00
65190;BME280;51777;53.570;9.984;2023-01-29T09:02:24;102108.81;;;2.93;100.00
65190;BME280;51777;53.570;9.984;2023-01-29T09:04:49;102108.81;;;2.93;100.00
65190;BME280;51777;53.570;9.984;2023-01-29T09:07:14;102114.31;;;3.05;100.00
65190;BME280;51777;53.570;9.984;2023-01-29T09:09:40;102109.50;;;2.99;100.00
65190;BME280;51777;53.570;9.984;2023-01-29T09:12:05;102112.03;;;2.99;100.00
65190;BME280;51777;53.570;9.984;2023-01-29T09:14:31;102114.69;;;2.95;100.00
65190;BME280;51777;53.570;9.984;2023-01-29T09:16:59;102112.66;;;3.04;100.00
65190;BME280;51777;53.570;9.984;2023-01-29T09:19:25;102107.34;;;3.08;100.00
65190;BME280;51777;53.570;9.984;2023-01-29T09:21:50;102098.56;;;3.15;100.00
65190;BME280;51777;53.570;9.984;2023-01-29T09:24:15;102107.19;;;3.13;100.00
65190;BME280;51777;53.570;9.984;2023-01-29T09:26:41;102102.00;;;3.14;100.00
65190;BME280;51777;53.570;9.984;2023-01-29T09:29:09;102101.63;;;3.23;100.00
65190;BME280;51777;53.570;9.984;2023-01-29T09:31:35;102096.75;;;3.17;100.00
65190;BME280;51777;53.570;9.984;2023-01-29T09:34:01;102095.72;;;3.21;100.00
65190;BME280;51777;53.570;9.984;2023-01-29T09:36:26;102092.25;;;3.24;100.00
65190;BME280;51777;53.570;9.984;2023-01-29T09:38:52;102083.84;;;3.20;100.00
65190;BME280;51777;53.570;9.984;2023-01-29T09:41:32;102088.47;;;3.12;100.00
65190;BME280;51777;53.570;9.984;2023-01-29T09:44:05;102078.41;;;3.28;100.00
65190;BME280;51777;53.570;9.984;2023-01-29T09:46:45;102081.19;;;3.23;100.00
65190;BME280;51777;53.570;9.984;2023-01-29T09:52:05;102079.03;;;3.33;100.00
65190;BME280;51777;53.570;9.984;2023-01-29T09:57:24;102061.50;;;3.26;100.00
65190;BME280;51777;53.570;9.984;2023-01-29T09:59:53;102050.38;;;3.27;100.00
65190;BME280;51777;53.570;9.984;2023-01-29T10:07:39;102029.56;;;3.34;100.00
65190;BME280;51777;53.570;9.984;2023-01-29T10:23:37;102014.59;;;3.45;100.00
65190;BME280;51777;53.570;9.984;2023-01-29T10:26:09;102008.53;;;3.48;100.00
65190;BME280;51777;53.570;9.984;2023-01-29T10:28:42;102007.34;;;3.36;100.00
65190;BME280;51777;53.570;9.984;2023-01-29T10:31:30;101983.63;;;3.33;100.00
65190;BME280;51777;53.570;9.984;2023-01-29T10:34:13;102001.59;;;3.31;100.00
65190;BME280;51777;53.570;9.984;2023-01-29T10:36:44;101991.19;;;3.36;100.00
65190;BME280;51777;53.570;9.984;2023-01-29T10:39:21;101991.81;;;3.41;100.00
65190;BME280;51777;53.570;9.984;2023-01-29T10:58:46;101965.00;;;3.49;100.00
65190;BME280;51777;53.570;9.984;2023-01-29T11:01:13;101970.53;;;3.40;100.00
65190;BME280;51777;53.570;9.984;2023-01-29T11:03:39;101960.00;;;3.46;100.00
65190;BME280;51777;53.570;9.984;2023-01-29T11:06:29;101959.41;;;3.60;100.00
65190;BME280;51777;53.570;9.984;2023-01-29T11:12:02;101952.69;;;3.58;100.00
65190;BME280;51777;53.570;9.984;2023-01-29T11:16:58;101952.41;;;3.64;100.00
65190;BME280;51777;53.570;9.984;2023-01-29T11:19:41;101954.06;;;3.65;100.00
65190;BME280;51777;53.570;9.984;2023-01-29T11:22:14;101961.44;;;3.71;100.00
65190;BME280;51777;53.570;9.984;2023-01-29T11:24:40;101948.38;;;3.77;100.00
65190;BME280;51777;53.570;9.984;2023-01-29T11:27:23;101947.56;;;3.76;100.00
65190;BME280;51777;53.570;9.984;2023-01-29T11:29:52;101954.47;;;3.74;100.00
65190;BME280;51777;53.570;9.984;2023-01-29T11:34:58;101935.16;;;3.86;100.00
65190;BME280;51777;53.570;9.984;2023-01-29T11:37:37;101926.78;;;3.82;100.00
65190;BME280;51777;53.570;9.984;2023-01-29T11:40:38;101925.97;;;3.82;100.00
65190;BME280;51777;53.570;9.984;2023-01-29T11:45:56;101918.75;;;3.90;100.00
65190;BME280;51777;53.570;9.984;2023-01-29T11:48:29;101915.72;;;3.82;100.00
65190;BME280;51777;53.570;9.984;2023-01-29T11:50:58;101912.47;;;3.97;100.00
65190;BME280;51777;53.570;9.984;2023-01-29T11:55:55;101911.75;;;3.94;100.00
65190;BME280;51777;53.570;9.984;2023-01-29T11:58:29;101904.78;;;3.97;100.00
65190;BME280;51777;53.570;9.984;2023-01-29T12:01:00;101897.03;;;3.99;100.00
65190;BME280;51777;53.570;9.984;2023-01-29T12:03:33;101894.31;;;4.02;100.00
65190;BME280;51777;53.570;9.984;2023-01-29T12:06:07;101897.63;;;4.04;100.00
65190;BME280;51777;53.570;9.984;2023-01-29T12:08:38;101891.97;;;3.97;100.00
65190;BME280;51777;53.570;9.984;2023-01-29T12:11:22;101886.63;;;4.02;100.00
65190;BME280;51777;53.570;9.984;2023-01-29T12:13:59;101872.84;;;4.04;100.00
65190;BME280;51777;53.570;9.984;2023-01-29T12:19:28;101869.63;;;4.01;100.00
65190;BME280;51777;53.570;9.984;2023-01-29T12:22:02;101870.91;;;3.92;100.00
65190;BME280;51777;53.570;9.984;2023-01-29T12:24:40;101861.28;;;3.97;100.00
65190;BME280;51777;53.570;9.984;2023-01-29T12:27:28;101853.22;;;4.05;100.00
65190;BME280;51777;53.570;9.984;2023-01-29T12:32:43;101850.06;;;4.00;100.00
65190;BME280;51777;53.570;9.984;2023-01-29T12:35:25;101835.41;;;3.86;100.00
65190;BME280;51777;53.570;9.984;2023-01-29T12:40:45;101828.75;;;3.82;100.00
65190;BME280;51777;53.570;9.984;2023-01-29T12:43:22;101832.91;;;3.85;100.00
65190;BME280;51777;53.570;9.984;2023-01-29T12:45:53;101825.88;;;3.71;100.00
65190;BME280;51777;53.570;9.984;2023-01-29T12:48:29;101825.16;;;3.86;100.00
65190;BME280;51777;53.570;9.984;2023-01-29T12:51:03;101819.72;;;3.92;100.00
65190;BME280;51777;53.570;9.984;2023-01-29T12:53:42;101808.50;;;3.95;100.00
65190;BME280;51777;53.570;9.984;2023-01-29T12:56:22;101800.91;;;3.93;100.00
65190;BME280;51777;53.570;9.984;2023-01-29T12:58:52;101790.06;;;4.05;100.00
65190;BME280;51777;53.570;9.984;2023-01-29T13:01:28;101794.13;;;3.92;100.00
65190;BME280;51777;53.570;9.984;2023-01-29T13:04:04;101793.31;;;3.92;100.00
65190;BME280;51777;53.570;9.984;2023-01-29T13:06:43;101787.75;;;3.83;100.00
65190;BME280;51777;53.570;9.984;2023-01-29T13:09:25;101775.78;;;3.84;100.00
65190;BME280;51777;53.570;9.984;2023-01-29T13:11:59;101763.16;;;3.98;100.00
65190;BME280;51777;53.570;9.984;2023-01-29T13:15:14;101758.69;;;4.02;100.00
65190;BME280;51777;53.570;9.984;2023-01-29T13:17:43;101767.66;;;3.93;100.00
65190;BME280;51777;53.570;9.984;2023-01-29T13:20:16;101766.75;;;3.94;100.00
65190;BME280;51777;53.570;9.984;2023-01-29T13:22:43;101768.56;;;3.92;100.00
65190;BME280;51777;53.570;9.984;2023-01-29T13:25:14;101761.72;;;3.93;100.00
65190;BME280;51777;53.570;9.984;2023-01-29T13:27:42;101761.41;;;3.99;100.00
65190;BME280;51777;53.570;9.984;2023-01-29T13:30:26;101764.94;;;3.96;100.00
65190;BME280;51777;53.570;9.984;2023-01-29T13:32:53;101754.78;;;3.95;100.00
65190;BME280;51777;53.570;9.984;2023-01-29T13:35:36;101763.28;;;3.95;100.00
65190;BME280;51777;53.570;9.984;2023-01-29T13:38:15;101758.31;;;3.92;100.00
65190;BME280;51777;53.570;9.984;2023-01-29T13:40:50;101750.41;;;3.97;100.00
65190;BME280;51777;53.570;9.984;2023-01-29T13:43:20;101752.00;;;3.99;100.00
65190;BME280;51777;53.570;9.984;2023-01-29T13:45:48;101736.31;;;4.05;100.00
65190;BME280;51777;53.570;9.984;2023-01-29T13:48:24;101736.88;;;3.95;100.00
65190;BME280;51777;53.570;9.984;2023-01-29T13:50:52;101731.63;;;3.98;100.00
65190;BME280;51777;53.570;9.984;2023-01-29T13:56:39;101713.75;;;3.96;100.00
65190;BME280;51777;53.570;9.984;2023-01-29T13:59:20;101724.75;;;3.98;100.00
65190;BME280;51777;53.570;9.984;2023-01-29T14:06:54;101710.00;;;4.03;100.00
65190;BME280;51777;53.570;9.984;2023-01-29T14:09:30;101705.03;;;4.00;100.00
65190;BME280;51777;53.570;9.984;2023-01-29T14:11:56;101705.03;;;4.00;100.00
65190;BME280;51777;53.570;9.984;2023-01-29T14:14:49;101704.69;;;3.91;100.00
65190;BME280;51777;53.570;9.984;2023-01-29T14:17:18;101703.31;;;3.83;100.00
65190;BME280;51777;53.570;9.984;2023-01-29T14:19:49;101689.41;;;3.89;100.00
65190;BME280;51777;53.570;9.984;2023-01-29T14:22:26;101684.22;;;3.91;100.00
65190;BME280;51777;53.570;9.984;2023-01-29T14:24:59;101674.88;;;3.90;100.00
65190;BME280;51777;53.570;9.984;2023-01-29T14:27:27;101683.69;;;3.84;100.00
65190;BME280;51777;53.570;9.984;2023-01-29T14:30:02;101672.31;;;3.90;100.00
65190;BME280;51777;53.570;9.984;2023-01-29T14:32:31;101668.78;;;3.92;100.00
65190;BME280;51777;53.570;9.984;2023-01-29T14:35:01;101665.91;;;3.98;100.00
65190;BME280;51777;53.570;9.984;2023-01-29T14:37:34;101660.94;;;3.95;100.00
65190;BME280;51777;53.570;9.984;2023-01-29T14:40:22;101658.16;;;4.00;100.00
65190;BME280;51777;53.570;9.984;2023-01-29T14:43:06;101668.31;;;4.01;100.00
65190;BME280;51777;53.570;9.984;2023-01-29T14:45:37;101659.16;;;3.97;100.00
65190;BME280;51777;53.570;9.984;2023-01-29T14:56:36;101653.69;;;4.03;100.00
65190;BME280;51777;53.570;9.984;2023-01-29T14:59:48;101649.56;;;4.01;100.00
65190;BME280;51777;53.570;9.984;2023-01-29T15:02:21;101649.88;;;3.95;100.00
65190;BME280;51777;53.570;9.984;2023-01-29T15:04:53;101641.38;;;3.94;100.00